createdAt,value
2023-04-23T00:00:00.268Z,176.90
2023-04-23T00:10:01.021Z,193.20
2023-04-23T00:20:01.315Z,218.50
2023-04-23T00:30:01.821Z,174.30
2023-04-23T00:40:01.251Z,167.90
2023-04-23T00:50:01.270Z,137.30
2023-04-23T01:00:01.627Z,172.10
2023-04-23T01:10:01.113Z,204.70
2023-04-23T01:20:00.993Z,156.80
2023-04-23T01:30:01.290Z,172.60
2023-04-23T01:40:01.256Z,149.80
2023-04-23T01:50:01.703Z,140.50
2023-04-23T02:00:01.250Z,192.00
2023-04-23T02:10:03.455Z,167.20
2023-04-23T02:20:02.137Z,133.10
2023-04-23T02:30:02.103Z,139.40
2023-04-23T02:40:01.260Z,161.70
2023-04-23T02:50:01.937Z,156.80
2023-04-23T03:00:00.993Z,176.40
2023-04-23T03:10:01.276Z,213.30
2023-04-23T03:20:01.474Z,130.30
2023-04-23T03:30:01.239Z,132.30
2023-04-23T03:40:01.500Z,161.50
2023-04-23T03:50:01.338Z,126.50
2023-04-23T04:00:03.126Z,155.20
2023-04-23T04:10:01.062Z,176.20
2023-04-23T04:20:01.014Z,157.30
2023-04-23T04:30:01.026Z,157.60
2023-04-23T04:40:01.523Z,171.50
2023-04-23T04:50:01.102Z,155.60
2023-04-23T05:00:01.025Z,134.40
2023-04-23T05:10:01.081Z,124.30
2023-04-23T05:20:01.499Z,149.10
2023-04-23T05:30:01.006Z,166.80
2023-04-23T05:40:01.033Z,164.80
2023-04-23T05:50:01.073Z,144.90
2023-04-23T06:00:01.056Z,199.90
2023-04-23T06:10:03.342Z,147.20
2023-04-23T06:20:01.070Z,138.50
2023-04-23T06:30:01.313Z,196.90
2023-04-23T06:40:01.287Z,188.80
2023-04-23T06:50:01.504Z,183.10
2023-04-23T07:00:01.277Z,220.50
2023-04-23T07:10:01.688Z,157.20
2023-04-23T07:20:01.555Z,125.00
2023-04-23T07:30:01.464Z,111.20
2023-04-23T07:40:03.345Z,123.70
2023-04-23T07:50:01.104Z,153.50
2023-04-23T08:00:00.344Z,133.90
2023-04-23T08:10:02.103Z,137.00
2023-04-23T08:20:01.780Z,144.40
2023-04-23T08:30:02.082Z,158.90
2023-04-23T08:40:01.913Z,175.60
2023-04-23T08:50:03.373Z,201.60
2023-04-23T09:00:01.070Z,152.90
2023-04-23T09:10:02.116Z,182.00
2023-04-23T09:20:01.075Z,181.40
2023-04-23T09:30:01.583Z,143.70
2023-04-23T09:40:01.843Z,121.90
2023-04-23T10:00:11.321Z,152.30
2023-04-23T10:10:01.456Z,167.60
2023-04-23T10:20:01.311Z,123.80
2023-04-23T10:30:00.983Z,175.10
2023-04-23T10:40:00.264Z,152.10
2023-04-23T11:00:02.167Z,207.80
2023-04-23T11:10:01.533Z,242.80
2023-04-23T11:20:03.525Z,254.20
2023-04-23T11:30:01.051Z,268.70
2023-04-23T11:40:01.000Z,237.50
2023-04-23T11:50:01.029Z,220.10
2023-04-23T12:00:01.208Z,639.90
2023-04-23T12:10:01.534Z,641.10
2023-04-23T12:20:01.502Z,663.00
2023-04-23T12:30:04.194Z,683.30
2023-04-23T12:40:01.044Z,667.30
2023-04-23T12:50:01.052Z,629.10
2023-04-23T13:00:02.351Z,685.40
2023-04-23T13:10:02.020Z,688.70
2023-04-23T13:20:01.039Z,694.00
2023-04-23T13:30:02.102Z,701.50
2023-04-23T13:40:02.363Z,705.00
2023-04-23T14:00:01.329Z,738.00
2023-04-23T14:10:01.937Z,711.40
2023-04-23T14:20:03.705Z,722.80
2023-04-23T14:40:02.973Z,759.10
2023-04-23T14:50:02.306Z,748.80
2023-04-23T15:00:01.566Z,741.80
2023-04-23T15:10:01.707Z,727.90
2023-04-23T15:20:01.932Z,773.90
2023-04-23T15:30:02.192Z,747.50
2023-04-23T15:40:03.037Z,750.50
2023-04-23T15:50:01.590Z,736.30
2023-04-23T16:00:02.731Z,753.90
2023-04-23T16:10:01.591Z,751.80
2023-04-23T16:20:03.778Z,767.10
2023-04-23T16:30:02.155Z,742.80
2023-04-23T16:40:01.928Z,720.30
2023-04-23T16:50:02.376Z,736.70
2023-04-23T17:00:01.077Z,762.90
2023-04-23T17:10:01.668Z,641.10
2023-04-23T17:20:01.303Z,576.40
2023-04-23T17:30:01.347Z,516.20
2023-04-23T17:40:01.066Z,492.70
2023-04-23T17:50:02.478Z,595.60
2023-04-23T18:00:01.309Z,484.10
2023-04-23T18:10:02.767Z,273.80
2023-04-23T18:20:01.260Z,301.70
2023-04-23T18:30:01.514Z,215.20
2023-04-23T18:40:01.293Z,217.90
2023-04-23T18:50:01.123Z,276.80
2023-04-23T19:00:01.969Z,260.00
2023-04-23T19:10:02.190Z,190.40
2023-04-23T19:20:00.273Z,203.70
2023-04-23T19:30:02.210Z,198.90
2023-04-23T20:00:02.673Z,153.50
2023-04-23T20:10:01.093Z,123.50
2023-04-23T20:20:03.661Z,140.10
2023-04-23T20:30:01.031Z,179.70
2023-04-23T20:40:01.281Z,644.90
2023-04-23T20:50:01.516Z,180.60
2023-04-23T21:00:01.046Z,339.50
2023-04-23T21:10:01.466Z,214.80
2023-04-23T21:20:01.003Z,463.40
2023-04-23T21:30:00.303Z,222.70
2023-04-23T21:40:01.521Z,183.60
2023-04-23T21:50:01.229Z,191.40
2023-04-23T22:00:01.883Z,186.60
2023-04-23T22:10:01.645Z,167.40
2023-04-23T22:20:01.336Z,151.90
2023-04-23T22:30:01.544Z,144.80
2023-04-23T22:40:01.255Z,144.30
2023-04-23T22:50:01.516Z,147.50
2023-04-23T23:00:01.463Z,181.00
2023-04-23T23:10:01.048Z,142.00
2023-04-23T23:20:01.553Z,138.40
2023-04-23T23:30:01.849Z,132.40
2023-04-23T23:40:03.191Z,132.10
2023-04-23T23:50:01.840Z,168.30
